Time;durP1;ratioP1;P1;durP2;ratioP2;P2;SDS_P1;SDS_P2;PMS_P1;PMS_P2;Temp;Humidity;BMP_temperature;BMP_pressure;BME280_temperature;BME280_humidity;BME280_pressure;Samples;Min_cycle;Max_cycle;Signal;HPM_P1;HPM_P2
2023/10/26 00:01:39;;;;;;;9.90;9.60;;;12.20;99.90;;;;;;5099265;28;20245;-83
2023/10/26 00:04:06;;;;;;;10.20;9.90;;;12.20;99.90;;;;;;5087704;28;20238;-81
2023/10/26 00:06:33;;;;;;;10.13;9.83;;;12.20;99.90;;;;;;5088035;28;20312;-81
2023/10/26 00:09:03;;;;;;;10.23;9.93;;;12.20;99.90;;;;;;5088397;28;20258;-82
2023/10/26 00:11:30;;;;;;;10.17;9.87;;;12.20;99.90;;;;;;5089029;28;20240;-81
2023/10/26 00:13:57;;;;;;;9.80;9.50;;;12.20;99.90;;;;;;5092466;28;20226;-81
2023/10/26 00:16:25;;;;;;;9.80;9.50;;;12.20;99.90;;;;;;5088490;28;20273;-81
2023/10/26 00:18:52;;;;;;;10.30;10.00;;;12.20;99.90;;;;;;5085153;28;20238;-81
2023/10/26 00:21:20;;;;;;;10.30;10.00;;;12.20;99.90;;;;;;5084910;28;20268;-80
2023/10/26 00:23:48;;;;;;;10.00;9.70;;;12.20;99.90;;;;;;5084701;28;20281;-82
2023/10/26 00:26:18;;;;;;;9.53;9.23;;;12.20;99.90;;;;;;5084150;28;20249;-82
2023/10/26 00:28:46;;;;;;;9.70;9.40;;;12.20;99.90;;;;;;5084719;28;20248;-82
2023/10/26 00:31:13;;;;;;;9.47;9.17;;;12.20;99.90;;;;;;5084564;28;20238;-80
2023/10/26 00:33:40;;;;;;;9.43;9.13;;;12.20;99.90;;;;;;5084215;28;20234;-80
2023/10/26 00:36:09;;;;;;;9.70;9.40;;;12.20;99.90;;;;;;5085439;28;20210;-81
2023/10/26 00:38:36;;;;;;;9.40;9.10;;;12.20;99.90;;;;;;5084353;28;20234;-81
2023/10/26 00:41:03;;;;;;;9.80;9.50;;;12.20;99.90;;;;;;5086679;28;20234;-81
2023/10/26 00:43:32;;;;;;;9.60;9.30;;;12.20;99.90;;;;;;5085085;28;20229;-80
2023/10/26 00:46:00;;;;;;;9.90;9.60;;;12.30;99.90;;;;;;5084459;28;20257;-81
2023/10/26 00:48:27;;;;;;;9.80;9.50;;;12.20;99.90;;;;;;5083289;28;20234;-81
2023/10/26 00:50:55;;;;;;;9.73;9.43;;;12.30;99.90;;;;;;5084682;28;20230;-80
2023/10/26 00:53:22;;;;;;;9.77;9.47;;;12.30;99.90;;;;;;5084431;28;20233;-81
2023/10/26 00:55:52;;;;;;;9.53;9.23;;;12.30;99.90;;;;;;5084349;28;20264;-81
2023/10/26 00:58:20;;;;;;;9.90;9.60;;;12.30;99.90;;;;;;5084393;28;20226;-81
2023/10/26 01:00:49;;;;;;;10.40;10.10;;;12.30;99.90;;;;;;5083924;28;20297;-81
2023/10/26 01:03:16;;;;;;;10.10;9.80;;;12.40;99.90;;;;;;5084056;28;20230;-81
2023/10/26 01:05:44;;;;;;;10.20;9.90;;;12.30;99.90;;;;;;5083736;28;20238;-80
2023/10/26 01:08:12;;;;;;;10.03;9.73;;;12.40;99.90;;;;;;5083448;28;20304;-81
2023/10/26 01:10:39;;;;;;;10.20;9.90;;;12.40;99.90;;;;;;5084631;28;20313;-80
2023/10/26 01:13:06;;;;;;;10.10;9.80;;;12.40;99.90;;;;;;5083874;28;20222;-80
2023/10/26 01:15:33;;;;;;;10.23;9.93;;;12.40;99.90;;;;;;5084455;28;20218;-81
2023/10/26 01:18:02;;;;;;;10.20;9.90;;;12.40;99.90;;;;;;5084634;28;20285;-81
2023/10/26 01:20:30;;;;;;;9.87;9.57;;;12.40;99.90;;;;;;5084774;28;20230;-81
2023/10/26 01:22:59;;;;;;;10.10;9.80;;;12.40;99.90;;;;;;5085107;28;20234;-81
2023/10/26 01:25:26;;;;;;;10.30;10.00;;;12.40;99.90;;;;;;5082940;28;20237;-80
2023/10/26 01:27:53;;;;;;;10.10;9.80;;;12.40;99.90;;;;;;5083920;28;20230;-81
2023/10/26 01:30:20;;;;;;;10.17;9.87;;;12.40;99.90;;;;;;5084754;28;20260;-80
2023/10/26 01:32:47;;;;;;;10.10;9.80;;;12.40;99.90;;;;;;5083989;28;20234;-80
2023/10/26 01:35:15;;;;;;;10.10;9.80;;;12.40;99.90;;;;;;5084350;28;20230;-80
2023/10/26 01:37:42;;;;;;;10.30;10.00;;;12.50;99.90;;;;;;5083810;28;20253;-81
2023/10/26 01:40:12;;;;;;;10.30;10.00;;;12.50;99.90;;;;;;5085079;28;20299;-80
2023/10/26 01:42:39;;;;;;;10.20;9.90;;;12.50;99.90;;;;;;5084714;28;20242;-81
2023/10/26 01:45:08;;;;;;;10.00;9.70;;;12.50;99.90;;;;;;5083902;28;20230;-80
2023/10/26 01:47:35;;;;;;;10.03;9.73;;;12.50;99.90;;;;;;5083687;28;20234;-81
2023/10/26 01:50:03;;;;;;;10.17;9.87;;;12.40;99.90;;;;;;5084119;28;20318;-80
2023/10/26 01:52:30;;;;;;;10.40;10.10;;;12.40;99.90;;;;;;5083983;28;20222;-80
2023/10/26 01:54:58;;;;;;;10.30;10.00;;;12.40;99.90;;;;;;5083807;28;20231;-80
2023/10/26 01:57:26;;;;;;;10.50;10.20;;;12.40;99.90;;;;;;5084217;28;20319;-80
2023/10/26 01:59:55;;;;;;;10.20;9.90;;;12.40;99.90;;;;;;5084546;28;20237;-80
2023/10/26 02:02:23;;;;;;;10.23;9.93;;;12.40;99.90;;;;;;5092952;28;20226;-80
2023/10/26 02:04:50;;;;;;;10.20;9.90;;;12.40;99.90;;;;;;5089829;28;20214;-81
2023/10/26 02:07:17;;;;;;;10.00;9.70;;;12.40;99.90;;;;;;5089847;28;20254;-80
2023/10/26 02:09:45;;;;;;;9.70;9.40;;;12.40;99.90;;;;;;5088813;28;20284;-81
2023/10/26 02:12:12;;;;;;;10.00;9.70;;;12.40;99.90;;;;;;5088333;28;20253;-80
2023/10/26 02:14:41;;;;;;;9.93;9.63;;;12.40;99.90;;;;;;5090165;28;20230;-81
2023/10/26 02:17:08;;;;;;;9.80;9.50;;;12.40;99.90;;;;;;5091811;28;20246;-80
2023/10/26 02:19:35;;;;;;;9.63;9.33;;;12.40;99.90;;;;;;5093367;28;20222;-80
2023/10/26 02:22:02;;;;;;;9.87;9.57;;;12.40;99.90;;;;;;5093950;28;20278;-80
2023/10/26 02:24:30;;;;;;;9.97;9.67;;;12.40;99.90;;;;;;5090129;28;20235;-80
2023/10/26 02:26:57;;;;;;;9.97;9.67;;;12.40;99.90;;;;;;5088304;28;20280;-80
2023/10/26 02:29:24;;;;;;;10.00;9.70;;;12.40;99.90;;;;;;5086849;28;20384;-81
2023/10/26 02:31:53;;;;;;;10.10;9.80;;;12.40;99.90;;;;;;5086040;28;20288;-80
2023/10/26 02:34:20;;;;;;;9.93;9.63;;;12.40;99.90;;;;;;5086762;28;20222;-80
2023/10/26 02:36:47;;;;;;;10.30;10.00;;;12.40;99.90;;;;;;5086457;28;20236;-80
2023/10/26 02:39:14;;;;;;;10.10;9.80;;;12.40;99.90;;;;;;5086407;28;20238;-80
2023/10/26 02:41:42;;;;;;;10.07;9.77;;;12.40;99.90;;;;;;5086732;28;20234;-80
2023/10/26 02:44:09;;;;;;;9.67;9.37;;;12.40;99.90;;;;;;5086386;28;20222;-80
2023/10/26 02:46:36;;;;;;;9.80;9.50;;;12.40;99.90;;;;;;5086581;28;20234;-80
2023/10/26 02:49:04;;;;;;;9.90;9.60;;;12.40;99.90;;;;;;5085257;28;20234;-81
2023/10/26 02:51:32;;;;;;;9.60;9.30;;;12.40;99.90;;;;;;5086134;28;20319;-81
2023/10/26 02:53:59;;;;;;;10.10;9.80;;;12.40;99.90;;;;;;5085548;28;20278;-80
2023/10/26 02:56:26;;;;;;;10.10;9.80;;;12.30;99.90;;;;;;5085636;28;20234;-81
2023/10/26 02:58:53;;;;;;;9.97;9.67;;;12.30;99.90;;;;;;5089294;28;20991;-80
2023/10/26 03:01:20;;;;;;;9.73;9.43;;;12.40;99.90;;;;;;5087312;28;20226;-80
2023/10/26 03:03:48;;;;;;;9.70;9.40;;;12.40;99.90;;;;;;5086000;28;20226;-80
2023/10/26 03:06:16;;;;;;;9.50;9.20;;;12.40;99.90;;;;;;5086618;28;20240;-80
2023/10/26 03:08:43;;;;;;;9.50;9.20;;;12.30;99.90;;;;;;5086219;28;20256;-80
2023/10/26 03:11:11;;;;;;;9.40;9.10;;;12.30;99.90;;;;;;5086016;28;20234;-80
2023/10/26 03:13:38;;;;;;;9.40;9.10;;;12.30;99.90;;;;;;5087568;28;20244;-80
2023/10/26 03:16:07;;;;;;;9.30;9.03;;;12.30;99.90;;;;;;5088014;28;20226;-80
2023/10/26 03:18:35;;;;;;;9.30;9.00;;;12.30;99.90;;;;;;5086245;28;20236;-80
2023/10/26 03:21:02;;;;;;;9.90;9.60;;;12.30;99.90;;;;;;5086368;28;20304;-80
2023/10/26 03:23:31;;;;;;;9.60;9.30;;;12.20;99.90;;;;;;5085538;28;20241;-80
2023/10/26 03:25:59;;;;;;;9.70;9.40;;;12.20;99.90;;;;;;5086078;28;20234;-81
2023/10/26 03:28:27;;;;;;;9.50;9.20;;;12.20;99.90;;;;;;5085175;28;20230;-80
2023/10/26 03:30:54;;;;;;;9.37;9.07;;;12.20;99.90;;;;;;5085708;28;20218;-80
2023/10/26 03:33:21;;;;;;;9.83;9.53;;;12.20;99.90;;;;;;5085103;28;20233;-80
2023/10/26 03:35:48;;;;;;;10.00;9.70;;;12.20;99.90;;;;;;5087008;28;20226;-81
2023/10/26 03:38:15;;;;;;;9.90;9.60;;;12.30;99.90;;;;;;5086224;28;20234;-81
2023/10/26 03:40:44;;;;;;;9.50;9.20;;;12.20;99.90;;;;;;5085585;28;20238;-80
2023/10/26 03:43:11;;;;;;;9.47;9.17;;;12.20;99.90;;;;;;5085403;28;20244;-79
2023/10/26 03:45:38;;;;;;;9.63;9.33;;;12.20;99.90;;;;;;5085696;28;20269;-80
2023/10/26 03:48:06;;;;;;;9.93;9.63;;;12.20;99.90;;;;;;5085453;28;20319;-80
2023/10/26 03:50:33;;;;;;;9.73;9.43;;;12.20;99.90;;;;;;5085805;28;20520;-80
2023/10/26 03:53:01;;;;;;;9.80;9.50;;;12.20;99.90;;;;;;5085949;28;20226;-80
2023/10/26 03:55:28;;;;;;;9.80;9.50;;;12.20;99.90;;;;;;5085159;28;20264;-80
2023/10/26 03:57:56;;;;;;;9.63;9.33;;;12.20;99.90;;;;;;5084094;28;20264;-80
2023/10/26 04:00:23;;;;;;;9.57;9.27;;;12.20;99.90;;;;;;5084867;28;20296;-80
2023/10/26 04:02:51;;;;;;;9.50;9.20;;;12.20;99.90;;;;;;5084405;28;20261;-79
2023/10/26 04:05:18;;;;;;;9.30;9.00;;;12.20;99.90;;;;;;5084956;28;20230;-80
2023/10/26 04:07:45;;;;;;;9.60;9.30;;;12.20;99.90;;;;;;5085026;28;20296;-80
2023/10/26 04:10:12;;;;;;;9.50;9.20;;;12.20;99.90;;;;;;5084708;28;20443;-80
2023/10/26 04:12:39;;;;;;;9.30;9.00;;;12.20;99.90;;;;;;5085499;28;20240;-80
2023/10/26 04:15:09;;;;;;;9.67;9.37;;;12.20;99.90;;;;;;5085051;28;20226;-80
2023/10/26 04:17:36;;;;;;;9.77;9.47;;;12.20;99.90;;;;;;5084598;28;20254;-80
2023/10/26 04:20:04;;;;;;;10.03;9.73;;;12.20;99.90;;;;;;5087733;28;20288;-80
2023/10/26 04:22:32;;;;;;;9.93;9.63;;;12.20;99.90;;;;;;5089696;28;20222;-80
2023/10/26 04:24:59;;;;;;;9.80;9.50;;;12.20;99.90;;;;;;5089477;28;20226;-80
2023/10/26 04:27:26;;;;;;;10.00;9.70;;;12.10;99.90;;;;;;5093450;28;20241;-79
2023/10/26 04:29:53;;;;;;;9.90;9.60;;;12.20;99.90;;;;;;5089206;28;20250;-80
2023/10/26 04:32:22;;;;;;;10.10;9.80;;;12.20;99.90;;;;;;5085817;28;20215;-80
2023/10/26 04:34:49;;;;;;;10.00;9.70;;;12.20;99.90;;;;;;5085504;28;20226;-81
2023/10/26 04:37:17;;;;;;;10.17;9.87;;;12.20;99.90;;;;;;5084804;28;20234;-81
2023/10/26 04:39:44;;;;;;;10.00;9.70;;;12.20;99.90;;;;;;5084451;28;20226;-82
2023/10/26 04:42:12;;;;;;;9.90;9.60;;;12.20;99.90;;;;;;5084812;28;20218;-81
2023/10/26 04:44:40;;;;;;;9.90;9.60;;;12.20;99.90;;;;;;5087930;28;20325;-81
2023/10/26 04:47:07;;;;;;;9.90;9.60;;;12.20;99.90;;;;;;5085378;28;20241;-81
2023/10/26 04:49:35;;;;;;;10.10;9.80;;;12.20;99.90;;;;;;5083754;28;20256;-82
2023/10/26 04:52:03;;;;;;;10.27;9.97;;;12.20;99.90;;;;;;5083336;28;20234;-81
2023/10/26 04:54:30;;;;;;;10.00;9.70;;;12.20;99.90;;;;;;5083237;28;20237;-82
2023/10/26 04:56:57;;;;;;;9.90;9.60;;;12.10;99.90;;;;;;5084162;28;20249;-81
2023/10/26 04:59:24;;;;;;;9.90;9.60;;;12.10;99.90;;;;;;5086415;28;20241;-81
2023/10/26 05:01:53;;;;;;;9.80;9.50;;;12.10;99.90;;;;;;5082532;28;20249;-81
2023/10/26 05:04:20;;;;;;;9.53;9.23;;;12.10;99.90;;;;;;5083108;28;20234;-82
2023/10/26 05:06:48;;;;;;;9.40;9.10;;;12.10;99.90;;;;;;5083931;28;20292;-81
2023/10/26 05:09:16;;;;;;;9.60;9.30;;;12.00;99.90;;;;;;5083175;28;20234;-82
2023/10/26 05:11:43;;;;;;;9.40;9.10;;;12.00;99.90;;;;;;5085459;28;20218;-82
2023/10/26 05:14:11;;;;;;;9.70;9.40;;;12.10;99.90;;;;;;5083086;28;20234;-82
2023/10/26 05:16:38;;;;;;;9.73;9.43;;;12.10;99.90;;;;;;5082262;28;20230;-82
2023/10/26 05:19:05;;;;;;;9.70;9.40;;;12.00;99.90;;;;;;5084110;28;20265;-81
2023/10/26 05:21:32;;;;;;;9.90;9.60;;;12.00;99.90;;;;;;5082841;28;20290;-81
2023/10/26 05:24:01;;;;;;;9.50;9.20;;;12.00;99.90;;;;;;5082119;28;20237;-81
2023/10/26 05:26:28;;;;;;;9.70;9.40;;;12.10;99.90;;;;;;5083093;28;20312;-82
2023/10/26 05:28:55;;;;;;;9.53;9.23;;;12.10;99.90;;;;;;5086703;28;20249;-82
2023/10/26 05:31:22;;;;;;;9.30;9.00;;;12.00;99.90;;;;;;5084695;28;20206;-82
2023/10/26 05:33:50;;;;;;;9.30;9.00;;;12.10;99.90;;;;;;5082937;28;20300;-82
2023/10/26 05:36:17;;;;;;;9.23;8.93;;;12.00;99.90;;;;;;5085385;28;20283;-82
2023/10/26 05:38:44;;;;;;;9.50;9.20;;;12.00;99.90;;;;;;5085408;28;20258;-80
2023/10/26 05:41:12;;;;;;;9.40;9.10;;;12.00;99.90;;;;;;5086245;28;20230;-81
2023/10/26 05:43:40;;;;;;;9.83;9.53;;;12.00;99.90;;;;;;5086226;28;20240;-81
2023/10/26 05:46:07;;;;;;;10.33;10.03;;;12.00;99.90;;;;;;5085972;28;20230;-81
2023/10/26 05:48:34;;;;;;;10.20;9.90;;;12.00;99.90;;;;;;5083796;28;20417;-81
2023/10/26 05:51:01;;;;;;;10.30;10.00;;;12.00;99.90;;;;;;5084234;28;20240;-81
2023/10/26 05:53:28;;;;;;;10.10;9.80;;;12.10;99.90;;;;;;5083817;28;20230;-81
2023/10/26 05:55:59;;;;;;;9.90;9.60;;;12.10;99.90;;;;;;5084059;28;20229;-81
2023/10/26 05:58:28;;;;;;;9.97;9.67;;;12.10;99.90;;;;;;5084923;28;20308;-80
2023/10/26 06:01:13;;;;;;;10.50;10.20;;;12.10;99.90;;;;;;5083773;28;20242;-83
2023/10/26 06:03:40;;;;;;;10.20;9.90;;;12.10;99.90;;;;;;5084539;28;20230;-80
2023/10/26 06:06:08;;;;;;;9.97;9.67;;;12.10;99.90;;;;;;5084247;28;20234;-80
2023/10/26 06:08:35;;;;;;;10.00;9.70;;;12.10;99.90;;;;;;5084142;28;20222;-80
2023/10/26 06:11:05;;;;;;;10.27;9.97;;;12.10;99.90;;;;;;5084289;28;20223;-80
2023/10/26 06:13:33;;;;;;;10.20;9.90;;;12.10;99.90;;;;;;5084423;28;20393;-81
2023/10/26 06:16:01;;;;;;;10.37;10.07;;;12.00;99.90;;;;;;5084225;28;20257;-81
2023/10/26 06:18:38;;;;;;;10.27;9.97;;;12.00;99.90;;;;;;5083205;28;20273;-82
2023/10/26 06:21:07;;;;;;;10.17;9.87;;;12.00;99.90;;;;;;5084137;28;20282;-81
2023/10/26 06:23:36;;;;;;;10.10;9.80;;;11.90;99.90;;;;;;5083098;28;20329;-81
2023/10/26 06:26:05;;;;;;;10.30;10.00;;;11.90;99.90;;;;;;5085022;28;20244;-80
2023/10/26 06:28:34;;;;;;;10.40;10.10;;;11.90;99.90;;;;;;5085576;28;20238;-81
2023/10/26 06:31:14;;;;;;;9.97;9.67;;;11.90;99.90;;;;;;5087261;28;20253;-81
2023/10/26 06:33:42;;;;;;;10.10;9.80;;;11.90;99.90;;;;;;5089160;28;20281;-81
2023/10/26 06:36:11;;;;;;;10.17;9.87;;;11.90;99.90;;;;;;5088842;28;20328;-81
2023/10/26 06:38:41;;;;;;;10.23;9.93;;;11.90;99.90;;;;;;5084849;28;20242;-82
2023/10/26 06:41:09;;;;;;;10.10;9.80;;;11.90;99.90;;;;;;5083787;28;20222;-83
2023/10/26 06:43:39;;;;;;;10.37;10.07;;;11.90;99.90;;;;;;5084735;28;20237;-81
2023/10/26 06:46:07;;;;;;;10.77;10.47;;;11.80;99.90;;;;;;5082534;28;20234;-81
2023/10/26 06:48:34;;;;;;;10.90;10.60;;;11.90;99.90;;;;;;5082063;28;20229;-82
2023/10/26 06:51:04;;;;;;;11.10;10.70;;;11.80;99.90;;;;;;5083312;28;20230;-82
2023/10/26 06:53:31;;;;;;;10.87;10.57;;;11.80;99.90;;;;;;5082106;28;20298;-82
2023/10/26 06:56:01;;;;;;;10.73;10.43;;;11.80;99.90;;;;;;5083310;28;20276;-84
2023/10/26 06:58:28;;;;;;;10.70;10.40;;;11.80;99.90;;;;;;5082912;28;20222;-80
2023/10/26 07:00:57;;;;;;;10.80;10.50;;;11.90;99.90;;;;;;5082065;28;20226;-80
2023/10/26 07:03:25;;;;;;;11.10;10.70;;;11.80;99.90;;;;;;5083043;28;20226;-84
2023/10/26 07:05:52;;;;;;;10.77;10.47;;;11.90;99.90;;;;;;5082414;28;20230;-80
2023/10/26 07:08:19;;;;;;;10.80;10.50;;;11.90;99.90;;;;;;5082511;28;20238;-81
2023/10/26 07:10:46;;;;;;;10.70;10.40;;;11.90;99.90;;;;;;5082258;28;20300;-79
2023/10/26 07:13:14;;;;;;;11.30;10.90;;;11.90;99.90;;;;;;5080624;28;20234;-79
2023/10/26 07:15:41;;;;;;;11.10;10.70;;;11.90;99.90;;;;;;5082005;28;20233;-80
2023/10/26 07:18:10;;;;;;;11.20;10.80;;;11.90;99.90;;;;;;5081743;28;20311;-79
2023/10/26 07:20:38;;;;;;;11.20;10.80;;;11.90;99.90;;;;;;5081610;28;20234;-79
2023/10/26 07:23:05;;;;;;;10.37;10.07;;;11.90;99.90;;;;;;5082692;28;20278;-79
2023/10/26 07:25:36;;;;;;;10.00;9.70;;;11.90;99.90;;;;;;5082745;28;20391;-80
2023/10/26 07:28:03;;;;;;;10.20;9.90;;;11.90;99.90;;;;;;5084203;28;20262;-79
2023/10/26 07:30:30;;;;;;;9.90;9.60;;;11.90;99.90;;;;;;5084575;28;20224;-80
2023/10/26 07:32:57;;;;;;;10.50;10.20;;;12.00;99.90;;;;;;5084092;28;20304;-80
2023/10/26 07:35:26;;;;;;;10.27;9.97;;;12.00;99.90;;;;;;5083374;28;20261;-80
2023/10/26 07:37:53;;;;;;;10.40;10.10;;;12.00;99.90;;;;;;5084623;28;20234;-80
2023/10/26 07:40:21;;;;;;;10.50;10.20;;;12.00;99.90;;;;;;5083712;28;20249;-80
2023/10/26 07:42:49;;;;;;;10.30;10.00;;;12.10;99.90;;;;;;5082534;28;20257;-81
2023/10/26 07:45:16;;;;;;;10.03;9.73;;;12.10;99.90;;;;;;5084604;28;20230;-80
2023/10/26 07:47:43;;;;;;;10.40;10.10;;;12.20;99.90;;;;;;5083646;28;20242;-81
2023/10/26 07:50:14;;;;;;;10.30;10.00;;;12.20;99.90;;;;;;5085314;28;20233;-81
2023/10/26 07:52:42;;;;;;;10.60;10.30;;;12.20;99.90;;;;;;5084812;28;20237;-80
2023/10/26 07:55:17;;;;;;;10.60;10.30;;;12.30;99.90;;;;;;5083239;28;20233;-81
2023/10/26 07:57:45;;;;;;;10.80;10.50;;;12.40;99.90;;;;;;5080284;28;20333;-78
2023/10/26 08:00:14;;;;;;;10.33;10.03;;;12.50;99.90;;;;;;5078574;28;20226;-78
2023/10/26 08:02:42;;;;;;;9.90;9.60;;;12.70;99.90;;;;;;5079131;28;20230;-78
2023/10/26 08:05:11;;;;;;;10.10;9.80;;;12.80;99.90;;;;;;5078977;28;20265;-78
2023/10/26 08:07:39;;;;;;;9.80;9.50;;;12.80;99.90;;;;;;5076302;28;20336;-78
2023/10/26 08:10:10;;;;;;;9.60;9.30;;;12.90;99.90;;;;;;5068303;28;20235;-78
2023/10/26 08:12:37;;;;;;;9.73;9.43;;;13.00;99.90;;;;;;5064214;28;20712;-80
2023/10/26 08:15:05;;;;;;;9.80;9.50;;;13.00;99.90;;;;;;5059551;28;20222;-80
2023/10/26 08:17:34;;;;;;;10.10;9.80;;;12.90;99.90;;;;;;5060460;28;20258;-79
2023/10/26 08:20:04;;;;;;;9.70;9.40;;;12.80;99.90;;;;;;5060491;28;20227;-79
2023/10/26 08:22:32;;;;;;;9.67;9.37;;;12.90;99.90;;;;;;5078750;28;20245;-80
2023/10/26 08:24:59;;;;;;;9.90;9.60;;;12.80;99.90;;;;;;5081449;28;21039;-79
2023/10/26 08:27:28;;;;;;;10.23;9.93;;;12.80;99.90;;;;;;5080684;28;20234;-80
2023/10/26 08:29:55;;;;;;;9.80;9.50;;;12.80;99.90;;;;;;5090122;28;20247;-81
2023/10/26 08:32:22;;;;;;;10.23;9.93;;;12.80;99.90;;;;;;5101369;28;20233;-80
2023/10/26 08:34:50;;;;;;;9.80;9.50;;;12.70;99.90;;;;;;5100975;28;20249;-78
2023/10/26 08:37:18;;;;;;;10.10;9.80;;;12.80;99.90;;;;;;5084772;28;20284;-80
2023/10/26 08:39:45;;;;;;;9.93;9.63;;;12.80;99.90;;;;;;5081988;28;20238;-79
2023/10/26 08:42:12;;;;;;;10.23;9.93;;;12.80;99.90;;;;;;5080689;28;20257;-80
2023/10/26 08:44:42;;;;;;;10.53;10.23;;;12.90;99.90;;;;;;5078539;28;20373;-80
2023/10/26 08:47:14;;;;;;;10.33;10.03;;;12.90;99.90;;;;;;5079444;28;20233;-79
2023/10/26 08:49:44;;;;;;;10.60;10.30;;;12.90;99.90;;;;;;5077673;28;20352;-80
2023/10/26 08:52:11;;;;;;;10.50;10.20;;;12.90;99.90;;;;;;5080451;28;20237;-81
2023/10/26 08:54:38;;;;;;;10.40;10.10;;;12.90;99.90;;;;;;5079553;28;20226;-79
2023/10/26 08:57:08;;;;;;;10.30;10.00;;;13.00;99.90;;;;;;5079609;28;20226;-79
2023/10/26 08:59:36;;;;;;;10.30;10.00;;;13.00;99.90;;;;;;5081490;28;20224;-80
2023/10/26 09:02:05;;;;;;;9.97;9.67;;;13.10;99.90;;;;;;5080904;28;20258;-82
2023/10/26 09:04:32;;;;;;;10.30;10.00;;;13.20;99.90;;;;;;5081837;28;20226;-80
2023/10/26 09:07:03;;;;;;;10.20;9.90;;;13.20;99.90;;;;;;5081287;28;20222;-80
2023/10/26 09:09:43;;;;;;;10.10;9.80;;;13.30;99.90;;;;;;5089620;28;20230;-79
2023/10/26 09:12:12;;;;;;;9.67;9.37;;;13.30;99.90;;;;;;5102026;28;20237;-79
2023/10/26 09:14:39;;;;;;;9.97;9.67;;;13.40;99.90;;;;;;5104092;28;20237;-79
2023/10/26 09:17:08;;;;;;;9.80;9.50;;;13.40;99.90;;;;;;5104500;28;20268;-80
2023/10/26 09:19:42;;;;;;;10.00;9.70;;;13.50;99.90;;;;;;5105714;28;20285;-78
2023/10/26 09:22:12;;;;;;;10.10;9.80;;;13.50;99.90;;;;;;5105581;28;20233;-78
2023/10/26 09:24:40;;;;;;;10.10;9.80;;;13.70;99.90;;;;;;5106397;28;20328;-79
2023/10/26 09:27:07;;;;;;;10.03;9.73;;;14.00;99.90;;;;;;5104800;28;20272;-80
2023/10/26 09:29:38;;;;;;;9.90;9.60;;;14.20;99.90;;;;;;5105139;28;20255;-79
2023/10/26 09:32:08;;;;;;;10.07;9.77;;;14.30;99.90;;;;;;5105705;28;20309;-79
2023/10/26 09:34:41;;;;;;;10.10;9.80;;;14.30;99.90;;;;;;5105402;28;20335;-80
2023/10/26 09:37:09;;;;;;;10.10;9.80;;;14.20;99.90;;;;;;5105520;28;20233;-80
2023/10/26 09:39:41;;;;;;;9.93;9.63;;;14.20;99.90;;;;;;5104673;28;20245;-79
2023/10/26 09:42:10;;;;;;;10.20;9.90;;;14.50;99.90;;;;;;5105046;28;20228;-78
2023/10/26 09:44:37;;;;;;;10.17;9.87;;;14.70;99.90;;;;;;5104918;28;20233;-81
2023/10/26 09:47:07;;;;;;;10.17;9.87;;;14.90;99.90;;;;;;5104888;28;20253;-80
2023/10/26 09:49:34;;;;;;;10.20;9.90;;;15.10;99.90;;;;;;5103513;28;20329;-78
2023/10/26 09:52:01;;;;;;;10.10;9.80;;;15.30;99.90;;;;;;5103401;28;20230;-78
2023/10/26 09:54:32;;;;;;;10.50;10.20;;;15.50;99.90;;;;;;5103831;28;20319;-78
2023/10/26 09:57:07;;;;;;;10.25;9.95;;;15.70;99.90;;;;;;5104042;28;20229;-80
2023/10/26 09:59:34;;;;;;;10.10;9.80;;;15.60;99.90;;;;;;5103876;28;20237;-82
2023/10/26 10:02:16;;;;;;;9.85;9.55;;;15.50;99.90;;;;;;5107602;28;20225;-79
2023/10/26 10:04:44;;;;;;;9.77;9.48;;;15.50;99.90;;;;;;5116860;28;20229;-80
2023/10/26 10:07:17;;;;;;;10.07;9.77;;;15.50;99.90;;;;;;5116726;28;20256;-79
2023/10/26 10:10:07;;;;;;;10.25;9.95;;;15.30;99.90;;;;;;5116755;28;20339;-81
2023/10/26 10:12:35;;;;;;;9.90;9.60;;;15.10;99.90;;;;;;5107116;28;20233;-78
2023/10/26 10:15:06;;;;;;;9.93;9.63;;;14.90;99.90;;;;;;5118215;28;20221;-80
2023/10/26 10:18:05;;;;;;;10.20;9.90;;;14.90;99.90;;;;;;5118173;28;20222;-79
2023/10/26 10:20:35;;;;;;;10.20;9.90;;;14.70;99.90;;;;;;5116033;28;20240;-80
2023/10/26 10:23:03;;;;;;;10.40;10.10;;;14.70;99.90;;;;;;5115520;28;20233;-79
2023/10/26 10:26:02;;;;;;;9.90;9.60;;;14.50;99.90;;;;;;5117144;28;20230;-80
2023/10/26 10:28:48;;;;;;;9.90;9.60;;;14.40;99.90;;;;;;5111919;28;20236;-79
2023/10/26 10:31:24;;;;;;;9.77;9.47;;;14.20;99.90;;;;;;5115580;28;20213;-80
2023/10/26 10:34:05;;;;;;;10.30;10.00;;;14.20;99.90;;;;;;5114994;28;20241;-78
2023/10/26 10:37:09;;;;;;;9.70;9.40;;;14.10;99.90;;;;;;5117695;28;20253;-79
2023/10/26 10:39:36;;;;;;;10.07;9.77;;;14.10;99.90;;;;;;5108469;28;20281;-79
2023/10/26 10:42:09;;;;;;;10.20;9.90;;;14.10;99.90;;;;;;5097200;28;20274;-79
2023/10/26 10:44:37;;;;;;;10.30;10.00;;;14.10;99.90;;;;;;5101572;28;20218;-78
2023/10/26 10:47:05;;;;;;;9.83;9.53;;;14.00;99.90;;;;;;5103227;28;20311;-78
2023/10/26 11:31:51;;;;;;;9.97;9.67;;;14.00;99.90;;;;;;4981091;28;20279;-88
2023/10/26 11:44:46;;;;;;;;;;;;;;;;;;;;;
2023/10/26 12:11:13;;;;;;;10.10;9.80;;;12.50;99.90;;;;;;4796682;29;20248;-92
2023/10/26 12:21:20;;;;;;;10.03;9.73;;;12.40;99.90;;;;;;4986780;28;20256;-91
2023/10/26 12:25:04;;;;;;;9.80;9.50;;;12.40;99.90;;;;;;5027266;28;20255;-91
2023/10/26 12:34:59;;;;;;;10.17;9.87;;;12.50;99.90;;;;;;5021249;28;20216;-91
2023/10/26 12:56:41;;;;;;;10.07;9.77;;;12.60;99.90;;;;;;5023619;28;20221;-90
2023/10/26 12:59:56;;;;;;;;;;;;;;;;;;;;;
2023/10/26 13:51:20;;;;;;;10.10;9.80;;;13.00;99.90;;;;;;5026795;28;20230;-90
2023/10/26 14:29:45;;;;;;;9.50;9.20;;;13.20;99.90;;;;;;5094307;22;20281;-86
2023/10/26 14:44:43;;;;;;;;;;;;;;;;;;;;;
2023/10/26 16:27:01;;;;;;;8.57;8.37;;;12.80;99.90;;;;;;784661;23;20529;-82
2023/10/26 16:30:22;;;;;;;8.87;8.67;;;12.80;99.90;;;;;;4970850;28;20249;-85
2023/10/26 16:36:37;;;;;;;8.97;8.77;;;12.60;99.90;;;;;;4971896;28;20261;-84
2023/10/26 16:42:25;;;;;;;8.80;8.60;;;12.60;99.90;;;;;;4976700;28;20234;-84
2023/10/26 16:45:11;;;;;;;9.00;8.70;;;12.60;99.90;;;;;;4973954;28;20238;-85
2023/10/26 16:48:02;;;;;;;8.80;8.60;;;12.50;99.90;;;;;;4970959;28;20230;-85
2023/10/26 16:50:30;;;;;;;9.30;9.00;;;12.50;99.90;;;;;;4969547;23;20326;-80
2023/10/26 16:52:57;;;;;;;8.80;8.60;;;12.50;99.90;;;;;;4946526;29;20287;-79
2023/10/26 16:55:25;;;;;;;8.80;8.60;;;12.40;99.90;;;;;;4945635;29;20242;-79
2023/10/26 16:57:53;;;;;;;8.90;8.67;;;12.40;99.90;;;;;;4944099;29;20322;-80
2023/10/26 17:00:27;;;;;;;9.13;8.83;;;12.40;99.90;;;;;;4945676;29;20235;-82
2023/10/26 17:02:58;;;;;;;9.00;8.70;;;12.40;99.90;;;;;;4946351;28;20322;-81
2023/10/26 17:05:25;;;;;;;8.73;8.53;;;12.40;99.90;;;;;;4945563;29;20243;-82
2023/10/26 17:07:52;;;;;;;8.80;8.60;;;12.40;99.90;;;;;;4946532;29;20262;-81
2023/10/26 17:10:19;;;;;;;9.10;8.80;;;12.40;99.90;;;;;;4945753;29;20263;-81
2023/10/26 17:12:49;;;;;;;8.80;8.50;;;12.40;99.90;;;;;;4945446;29;20238;-81
2023/10/26 17:15:18;;;;;;;9.10;8.80;;;12.40;99.90;;;;;;4945461;29;20310;-81
2023/10/26 17:17:45;;;;;;;8.97;8.67;;;12.40;99.90;;;;;;4946147;29;20275;-81
2023/10/26 17:20:13;;;;;;;8.90;8.60;;;12.40;99.90;;;;;;4945944;29;20239;-81
2023/10/26 17:22:43;;;;;;;8.90;8.60;;;12.30;99.90;;;;;;4946700;29;20231;-81
2023/10/26 17:25:11;;;;;;;8.97;8.67;;;12.30;99.90;;;;;;4946009;29;20239;-84
2023/10/26 17:27:38;;;;;;;8.90;8.60;;;12.30;99.90;;;;;;4945716;28;20282;-82
2023/10/26 17:30:07;;;;;;;9.00;8.70;;;12.40;99.90;;;;;;4947104;29;20230;-84
2023/10/26 17:32:36;;;;;;;9.03;8.73;;;12.40;99.90;;;;;;4951116;29;20274;-81
2023/10/26 17:35:03;;;;;;;8.90;8.60;;;12.30;99.90;;;;;;4949196;29;20234;-81
2023/10/26 17:37:30;;;;;;;9.10;8.80;;;12.30;99.90;;;;;;4949045;29;20245;-80
2023/10/26 17:39:57;;;;;;;9.00;8.70;;;12.30;99.90;;;;;;4949503;29;20255;-81
2023/10/26 17:42:25;;;;;;;9.07;8.77;;;12.30;99.90;;;;;;4948727;29;20321;-80
2023/10/26 17:44:52;;;;;;;9.10;8.80;;;12.30;99.90;;;;;;4948980;29;20248;-81
2023/10/26 17:47:21;;;;;;;8.93;8.63;;;12.30;99.90;;;;;;4947913;29;20243;-79
2023/10/26 17:49:50;;;;;;;9.10;8.80;;;12.30;99.90;;;;;;4946524;29;20255;-79
2023/10/26 17:52:17;;;;;;;9.03;8.73;;;12.30;99.90;;;;;;4947331;28;20238;-80
2023/10/26 17:54:44;;;;;;;8.93;8.63;;;12.30;99.90;;;;;;4950308;29;20271;-82
2023/10/26 17:57:11;;;;;;;9.00;8.70;;;12.30;99.90;;;;;;4948939;29;20231;-82
2023/10/26 17:59:38;;;;;;;9.23;8.93;;;12.30;99.90;;;;;;4947950;29;20322;-82
2023/10/26 18:02:06;;;;;;;9.20;8.90;;;12.30;99.90;;;;;;4948313;29;20330;-82
2023/10/26 18:04:33;;;;;;;9.10;8.80;;;12.30;99.90;;;;;;4949018;29;20238;-82
2023/10/26 18:07:02;;;;;;;9.03;8.73;;;12.30;99.90;;;;;;4947768;29;20294;-81
2023/10/26 18:09:29;;;;;;;9.00;8.70;;;12.20;99.90;;;;;;4949203;29;20235;-82